Michael S — WDE9794 — position and weather

sailwx.info

Track history (hours):
 
Tides and Currents Weather Stations Pressure Air Temp Water Temp Dewpoint Dewpoint Depression Visibility Wind Speed Wind Dir Waves Ship Positions

Michael S

Owner: Bisso Tow Boats Inc., New Orleans, LA. More information available from US FCC via Universal Licensing System and Coast Guard Vessel Documentation Center.

Last reported at 2015-Feb-01 07:23 UTC. Time now 2015-Feb-01 08:43 UTC.
Position N 29°58' W 090°02'.

Length 33 m; draft 3 m.

Type: Towing. MMSI: 367413700.

Date/timePositionNaut miles runAvg speedWind from/ knotsBaromVisibWave heightAir tempDewpointWater temp
2015-Feb-01 07:23N 29°58' W 090°02'0 0.0
2015-Feb-01 06:29N 29°58' W 090°02'0 0.0
2015-Feb-01 05:17N 29°58' W 090°02'4 3.3
2015-Feb-01 04:07N 29°56' W 089°58'4 5.5
2015-Feb-01 03:25N 29°52' W 089°56'7 2.4
2015-Feb-01 00:30N 29°57' W 090°01'0 0.2
2015-Jan-31 22:32N 29°57' W 090°01'1 1.1
2015-Jan-31 21:28N 29°57' W 089°60'3 0.3
2015-Jan-31 10:28N 29°55' W 089°56'2 2.4
2015-Jan-31 09:32N 29°54' W 089°54'7 3.4
2015-Jan-31 07:33N 29°57' W 090°01'1 0.2
2015-Jan-31 03:16N 29°58' W 090°02'0 0.0
2015-Jan-31 02:28N 29°58' W 090°02'0 0.0
2015-Jan-30 23:28N 29°58' W 090°02'0 0.0
2015-Jan-30 18:31N 29°58' W 090°02'0 0.0
2015-Jan-30 17:25N 29°58' W 090°02'1 1.3
2015-Jan-30 16:30N 29°57' W 090°03'0 0.1
2015-Jan-30 15:07N 29°57' W 090°03'0 0.1
2015-Jan-30 14:32N 29°57' W 090°03'2 1.0
2015-Jan-30 12:25N 29°57' W 090°01'1 0.6
2015-Jan-30 10:13N 29°56' W 089°60'0 0.2
2015-Jan-30 09:15N 29°57' W 089°60'0 0.4
2015-Jan-30 08:15N 29°56' W 089°60'0 0.0
2015-Jan-30 05:03N 29°56' W 089°60'5 6.4
2015-Jan-30 04:18N 29°55' W 090°05'3 0.7
2015-Jan-29 23:14N 29°56' W 090°09'1 0.3
2015-Jan-29 20:25N 29°56' W 090°08'4 4.7
2015-Jan-29 19:28N 29°57' W 090°03'2 0.2
2015-Jan-29 12:29N 29°57' W 090°02'1 0.3
2015-Jan-29 09:24N 29°58' W 090°02'0 0.0
2015-Jan-29 08:30N 29°58' W 090°02'0 0.0
2015-Jan-29 07:27N 29°58' W 090°02'0 0.0
2015-Jan-29 03:21N 29°58' W 090°02'0 0.0
2015-Jan-29 02:33N 29°58' W 090°02'6 4.6
2015-Jan-29 01:19N 29°55' W 089°56'1 0.2
2015-Jan-28 22:27N 29°55' W 089°57'3 2.4
2015-Jan-28 21:22N 29°56' W 089°60'2 0.6
2015-Jan-28 17:20N 29°58' W 090°02'5 1.3
2015-Jan-28 13:24N 29°55' W 089°57'4 1.0
2015-Jan-28 09:16N 29°57' W 090°01'0 0.0
2015-Jan-28 05:15N 29°57' W 090°01'1 0.7
2015-Jan-28 03:16N 29°58' W 090°02'0 0.0
2015-Jan-28 02:28N 29°58' W 090°02'0 0.0
2015-Jan-28 01:22N 29°58' W 090°02'4 1.6
2015-Jan-27 23:04N 29°56' W 089°59'15 1.2
2015-Jan-27 10:26N 29°41' W 089°58'15 1.2
2015-Jan-26 21:33N 29°56' W 089°59'1 0.2
2015-Jan-26 15:31N 29°57' W 089°60'1 0.2
2015-Jan-26 08:33N 29°57' W 090°01'3 0.5
2015-Jan-26 03:07N 29°56' W 090°04'2 0.3
2015-Jan-25 19:27N 29°55' W 090°06'0 0.0
2015-Jan-25 16:15N 29°55' W 090°06'3 3.2
2015-Jan-25 15:26N 29°56' W 090°03'4 3.1
2015-Jan-25 14:05N 29°56' W 090°08'0 0.0
2015-Jan-25 12:05N 29°56' W 090°08'0 0.0
2015-Jan-25 11:12N 29°56' W 090°08'7 8.0
2015-Jan-25 10:22N 29°58' W 090°15'7 1.1
2015-Jan-25 04:28N 29°56' W 090°08'0 0.0
2015-Jan-25 03:04N 29°56' W 090°08'0 0.0
2015-Jan-24 12:16N 29°56' W 090°08'0 0.0
2015-Jan-23 20:22N 29°56' W 090°08'0 0.0
2015-Jan-23 19:13N 29°56' W 090°08'0 0.0
2015-Jan-23 13:10N 29°56' W 090°08'0 0.0
2015-Jan-23 11:04N 29°56' W 090°08'0 0.0
2015-Jan-23 07:28N 29°56' W 090°08'0 0.0
2015-Jan-23 04:31N 29°56' W 090°08'0 0.0
2015-Jan-23 02:25N 29°56' W 090°08'0 0.0
2015-Jan-22 22:09N 29°56' W 090°08'3 2.9
2015-Jan-22 21:16N 29°55' W 090°05'3 2.6
2015-Jan-22 20:15N 29°56' W 090°08'0 0.0
2015-Jan-22 19:18N 29°56' W 090°08'0 0.0
2015-Jan-22 18:21N 29°56' W 090°08'1 0.2
2015-Jan-22 13:19N 29°56' W 090°08'  
Track history (hours):
 
Tides and Currents Weather Stations Pressure Air Temp Water Temp Dewpoint Dewpoint Depression Visibility Wind Speed Wind Dir Waves Ship Positions

Michael S

Owner: Bisso Tow Boats Inc., New Orleans, LA. More information available from US FCC via Universal Licensing System and Coast Guard Vessel Documentation Center.

Last reported at 2015-Feb-01 07:23 UTC. Time now 2015-Feb-01 08:43 UTC.
Position N 29°58' W 090°02'.

Length 33 m; draft 3 m.

Type: Towing. MMSI: 367413700.

Date/timePositionNaut miles runAvg speedWind from/ knotsBaromVisibWave heightAir tempDewpointWater temp
2015-Feb-01 07:23N 29°58' W 090°02'0 0.0
2015-Feb-01 06:29N 29°58' W 090°02'0 0.0
2015-Feb-01 05:17N 29°58' W 090°02'4 3.3
2015-Feb-01 04:07N 29°56' W 089°58'4 5.5
2015-Feb-01 03:25N 29°52' W 089°56'7 2.4
2015-Feb-01 00:30N 29°57' W 090°01'0 0.2
2015-Jan-31 22:32N 29°57' W 090°01'1 1.1
2015-Jan-31 21:28N 29°57' W 089°60'3 0.3
2015-Jan-31 10:28N 29°55' W 089°56'2 2.4
2015-Jan-31 09:32N 29°54' W 089°54'7 3.4
2015-Jan-31 07:33N 29°57' W 090°01'1 0.2
2015-Jan-31 03:16N 29°58' W 090°02'0 0.0
2015-Jan-31 02:28N 29°58' W 090°02'0 0.0
2015-Jan-30 23:28N 29°58' W 090°02'0 0.0
2015-Jan-30 18:31N 29°58' W 090°02'0 0.0
2015-Jan-30 17:25N 29°58' W 090°02'1 1.3
2015-Jan-30 16:30N 29°57' W 090°03'0 0.1
2015-Jan-30 15:07N 29°57' W 090°03'0 0.1
2015-Jan-30 14:32N 29°57' W 090°03'2 1.0
2015-Jan-30 12:25N 29°57' W 090°01'1 0.6
2015-Jan-30 10:13N 29°56' W 089°60'0 0.2
2015-Jan-30 09:15N 29°57' W 089°60'0 0.4
2015-Jan-30 08:15N 29°56' W 089°60'0 0.0
2015-Jan-30 05:03N 29°56' W 089°60'5 6.4
2015-Jan-30 04:18N 29°55' W 090°05'3 0.7
2015-Jan-29 23:14N 29°56' W 090°09'1 0.3
2015-Jan-29 20:25N 29°56' W 090°08'4 4.7
2015-Jan-29 19:28N 29°57' W 090°03'2 0.2
2015-Jan-29 12:29N 29°57' W 090°02'1 0.3
2015-Jan-29 09:24N 29°58' W 090°02'0 0.0
2015-Jan-29 08:30N 29°58' W 090°02'0 0.0
2015-Jan-29 07:27N 29°58' W 090°02'0 0.0
2015-Jan-29 03:21N 29°58' W 090°02'0 0.0
2015-Jan-29 02:33N 29°58' W 090°02'6 4.6
2015-Jan-29 01:19N 29°55' W 089°56'1 0.2
2015-Jan-28 22:27N 29°55' W 089°57'3 2.4
2015-Jan-28 21:22N 29°56' W 089°60'2 0.6
2015-Jan-28 17:20N 29°58' W 090°02'5 1.3
2015-Jan-28 13:24N 29°55' W 089°57'4 1.0
2015-Jan-28 09:16N 29°57' W 090°01'0 0.0
2015-Jan-28 05:15N 29°57' W 090°01'1 0.7
2015-Jan-28 03:16N 29°58' W 090°02'0 0.0
2015-Jan-28 02:28N 29°58' W 090°02'0 0.0
2015-Jan-28 01:22N 29°58' W 090°02'4 1.6
2015-Jan-27 23:04N 29°56' W 089°59'15 1.2
2015-Jan-27 10:26N 29°41' W 089°58'15 1.2
2015-Jan-26 21:33N 29°56' W 089°59'1 0.2
2015-Jan-26 15:31N 29°57' W 089°60'1 0.2
2015-Jan-26 08:33N 29°57' W 090°01'3 0.5
2015-Jan-26 03:07N 29°56' W 090°04'2 0.3
2015-Jan-25 19:27N 29°55' W 090°06'0 0.0
2015-Jan-25 16:15N 29°55' W 090°06'3 3.2
2015-Jan-25 15:26N 29°56' W 090°03'4 3.1
2015-Jan-25 14:05N 29°56' W 090°08'0 0.0
2015-Jan-25 12:05N 29°56' W 090°08'0 0.0
2015-Jan-25 11:12N 29°56' W 090°08'7 8.0
2015-Jan-25 10:22N 29°58' W 090°15'7 1.1
2015-Jan-25 04:28N 29°56' W 090°08'0 0.0
2015-Jan-25 03:04N 29°56' W 090°08'0 0.0
2015-Jan-24 12:16N 29°56' W 090°08'0 0.0
2015-Jan-23 20:22N 29°56' W 090°08'0 0.0
2015-Jan-23 19:13N 29°56' W 090°08'0 0.0
2015-Jan-23 13:10N 29°56' W 090°08'0 0.0
2015-Jan-23 11:04N 29°56' W 090°08'0 0.0
2015-Jan-23 07:28N 29°56' W 090°08'0 0.0
2015-Jan-23 04:31N 29°56' W 090°08'0 0.0
2015-Jan-23 02:25N 29°56' W 090°08'0 0.0
2015-Jan-22 22:09N 29°56' W 090°08'3 2.9
2015-Jan-22 21:16N 29°55' W 090°05'3 2.6
2015-Jan-22 20:15N 29°56' W 090°08'0 0.0
2015-Jan-22 19:18N 29°56' W 090°08'0 0.0
2015-Jan-22 18:21N 29°56' W 090°08'1 0.2
2015-Jan-22 13:19N 29°56' W 090°08'  

Dump ship's entire track history